createdAt,value
2019-06-20T00:00:42.540Z,4.78
2019-06-20T00:03:11.876Z,4.30
2019-06-20T00:05:42.375Z,4.35
2019-06-20T00:08:12.136Z,4.30
2019-06-20T00:10:41.911Z,4.20
2019-06-20T00:13:11.235Z,4.58
2019-06-20T00:15:40.721Z,4.00
2019-06-20T00:18:10.292Z,3.95
2019-06-20T00:20:39.635Z,4.30
2019-06-20T00:23:08.988Z,4.55
2019-06-20T00:25:38.399Z,3.72
2019-06-20T00:28:07.714Z,4.30
2019-06-20T00:30:37.080Z,4.03
2019-06-20T00:33:07.476Z,4.33
2019-06-20T00:35:36.803Z,4.17
2019-06-20T00:38:06.161Z,4.00
2019-06-20T00:40:35.493Z,4.22
2019-06-20T00:43:17.054Z,4.55
2019-06-20T00:45:35.911Z,4.30
2019-06-20T00:48:05.380Z,4.83
2019-06-20T00:50:34.886Z,9.85
2019-06-20T00:53:04.302Z,11.83
2019-06-20T00:55:33.654Z,8.58
2019-06-20T00:58:04.069Z,9.33
2019-06-20T01:00:33.466Z,7.12
2019-06-20T01:03:02.818Z,5.40
2019-06-20T01:05:32.152Z,4.85
2019-06-20T01:08:01.532Z,4.80
2019-06-20T01:10:30.907Z,4.67
2019-06-20T01:13:00.275Z,4.50
2019-06-20T01:15:29.666Z,4.47
2019-06-20T01:17:59.036Z,4.42
2019-06-20T01:20:28.481Z,5.08
2019-06-20T01:22:57.911Z,4.85
2019-06-20T01:25:33.081Z,5.08
2019-06-20T01:28:02.508Z,4.83
2019-06-20T01:30:31.839Z,4.70
2019-06-20T01:33:01.208Z,4.85
2019-06-20T01:35:30.531Z,4.70
2019-06-20T01:37:59.890Z,4.85
2019-06-20T01:40:29.316Z,4.87
2019-06-20T01:42:58.740Z,5.00
2019-06-20T01:45:28.182Z,4.15
2019-06-20T01:47:57.571Z,4.55
2019-06-20T01:50:26.908Z,4.75
2019-06-20T01:52:56.251Z,4.67
2019-06-20T01:55:25.579Z,4.40
2019-06-20T01:57:54.933Z,5.10
2019-06-20T02:00:39.481Z,5.05
2019-06-20T02:03:08.907Z,4.70
2019-06-20T02:05:38.341Z,4.62
2019-06-20T02:08:07.750Z,4.75
2019-06-20T02:10:37.139Z,5.28
2019-06-20T02:13:06.474Z,4.87
2019-06-20T02:15:35.828Z,4.67
2019-06-20T02:18:05.495Z,4.50
2019-06-20T02:20:39.033Z,4.60
2019-06-20T02:23:08.435Z,4.65
2019-06-20T02:25:37.783Z,5.35
2019-06-20T02:28:07.216Z,4.58
2019-06-20T02:30:36.709Z,4.50
2019-06-20T02:33:06.153Z,4.72
2019-06-20T02:35:35.535Z,4.72
2019-06-20T02:38:04.927Z,4.92
2019-06-20T02:40:35.523Z,4.62
2019-06-20T02:43:05.611Z,4.50
2019-06-20T02:45:36.939Z,5.15
2019-06-20T02:48:07.087Z,4.67
2019-06-20T02:50:36.648Z,5.12
2019-06-20T02:53:07.191Z,5.30
2019-06-20T02:55:36.558Z,5.53
2019-06-20T02:58:05.977Z,6.25
2019-06-20T03:00:57.470Z,6.03
2019-06-20T03:03:28.202Z,5.65
2019-06-20T03:05:58.005Z,4.92
2019-06-20T03:08:28.034Z,5.20
2019-06-20T03:10:57.430Z,5.33
2019-06-20T03:13:26.909Z,5.22
2019-06-20T03:15:56.358Z,5.28
2019-06-20T03:18:25.724Z,5.40
2019-06-20T03:20:55.286Z,5.53
2019-06-20T03:23:24.724Z,5.58
2019-06-20T03:25:54.043Z,4.87
2019-06-20T03:28:23.412Z,5.58
2019-06-20T03:30:52.913Z,5.58
2019-06-20T03:33:22.312Z,5.53
2019-06-20T03:35:51.774Z,5.87
2019-06-20T03:38:21.276Z,6.47
2019-06-20T03:40:50.594Z,5.90
2019-06-20T03:43:19.981Z,6.60
2019-06-20T03:45:49.399Z,6.47
2019-06-20T03:48:18.834Z,6.22
2019-06-20T03:50:48.239Z,5.22
2019-06-20T03:53:17.579Z,5.45
2019-06-20T03:55:47.019Z,5.78
2019-06-20T03:58:16.456Z,5.25
2019-06-20T04:00:45.872Z,5.47
2019-06-20T04:03:15.318Z,5.55
2019-06-20T04:05:44.731Z,6.00
2019-06-20T04:08:14.085Z,5.78
2019-06-20T04:10:43.515Z,5.42
2019-06-20T04:13:12.918Z,5.28
2019-06-20T04:15:42.279Z,5.37
2019-06-20T04:18:11.599Z,5.50
2019-06-20T04:20:40.937Z,5.65
2019-06-20T04:23:10.395Z,5.87
2019-06-20T04:25:39.736Z,6.08
2019-06-20T04:28:09.066Z,6.85
2019-06-20T04:30:38.420Z,6.80
2019-06-20T04:33:07.857Z,6.65
2019-06-20T04:35:37.218Z,6.17
2019-06-20T04:38:06.630Z,6.45
2019-06-20T04:40:36.006Z,5.72
2019-06-20T04:43:06.363Z,6.85
2019-06-20T04:45:46.675Z,6.20
2019-06-20T04:48:15.994Z,5.62
2019-06-20T04:50:45.331Z,6.87
2019-06-20T04:53:14.699Z,6.15
2019-06-20T04:55:44.015Z,6.42
2019-06-20T04:58:13.373Z,6.60
2019-06-20T05:00:42.779Z,6.83
2019-06-20T05:03:12.179Z,5.90
2019-06-20T05:05:41.510Z,6.22
2019-06-20T05:08:10.839Z,6.15
2019-06-20T05:10:40.166Z,6.47
2019-06-20T05:13:09.528Z,6.33
2019-06-20T05:15:51.912Z,6.72
2019-06-20T05:18:10.003Z,6.58
2019-06-20T05:20:39.442Z,6.72
2019-06-20T05:23:08.872Z,6.22
2019-06-20T05:25:38.278Z,5.85
2019-06-20T05:28:07.635Z,5.60
2019-06-20T05:30:37.125Z,6.20
2019-06-20T05:33:06.537Z,6.05
2019-06-20T05:35:35.966Z,5.97
2019-06-20T05:38:05.367Z,5.90
2019-06-20T05:40:37.214Z,5.53
2019-06-20T05:43:05.741Z,5.70
2019-06-20T05:45:35.069Z,6.53
2019-06-20T05:48:04.972Z,6.35
2019-06-20T05:50:34.370Z,6.53
2019-06-20T05:53:03.698Z,7.22
2019-06-20T05:55:33.063Z,6.55
2019-06-20T05:58:02.438Z,7.00
2019-06-20T06:00:32.007Z,6.55
2019-06-20T06:03:01.444Z,7.15
2019-06-20T06:05:30.880Z,6.90
2019-06-20T06:08:00.406Z,6.40
2019-06-20T06:10:29.808Z,5.72
2019-06-20T06:12:59.126Z,5.62
2019-06-20T06:15:28.487Z,5.47
2019-06-20T06:17:57.891Z,5.80
2019-06-20T06:20:27.359Z,5.90
2019-06-20T06:22:56.699Z,5.85
2019-06-20T06:25:26.114Z,5.87
2019-06-20T06:27:55.439Z,6.50
2019-06-20T06:30:24.795Z,6.00
2019-06-20T06:32:54.120Z,6.45
2019-06-20T06:35:23.729Z,5.67
2019-06-20T06:37:53.152Z,6.37
2019-06-20T06:40:22.927Z,6.08
2019-06-20T06:42:52.244Z,6.80
2019-06-20T06:45:22.256Z,6.92
2019-06-20T06:47:51.678Z,6.05
2019-06-20T06:50:21.279Z,6.42
2019-06-20T06:52:50.600Z,5.97
2019-06-20T06:55:20.504Z,5.80
2019-06-20T06:57:49.911Z,6.70
2019-06-20T07:00:19.665Z,7.25
2019-06-20T07:02:49.015Z,6.42
2019-06-20T07:05:18.575Z,6.22
2019-06-20T07:07:47.911Z,6.60
2019-06-20T07:10:17.654Z,6.70
2019-06-20T07:12:47.955Z,6.58
2019-06-20T07:15:17.599Z,6.10
2019-06-20T07:17:46.913Z,6.25
2019-06-20T07:20:16.889Z,6.37
2019-06-20T07:22:46.226Z,6.47
2019-06-20T07:25:15.936Z,7.42
2019-06-20T07:27:45.323Z,7.12
2019-06-20T07:30:15.194Z,7.20
2019-06-20T07:32:44.518Z,6.80
2019-06-20T07:35:14.795Z,6.90
2019-06-20T07:37:44.192Z,6.90
2019-06-20T07:40:15.028Z,5.83
2019-06-20T07:42:44.429Z,5.55
2019-06-20T07:45:14.483Z,7.37
2019-06-20T07:47:43.874Z,6.67
2019-06-20T07:50:13.687Z,6.70
2019-06-20T07:52:51.819Z,6.95
2019-06-20T07:55:14.438Z,6.97
2019-06-20T07:57:43.876Z,7.37
2019-06-20T08:00:13.988Z,7.75
2019-06-20T08:02:43.415Z,7.08
2019-06-20T08:05:14.516Z,6.65
2019-06-20T08:07:43.938Z,6.95
2019-06-20T08:10:15.938Z,6.00
2019-06-20T08:12:45.290Z,6.50
2019-06-20T08:15:16.153Z,6.97
2019-06-20T08:17:45.649Z,7.53
2019-06-20T08:20:15.823Z,7.37
2019-06-20T08:22:45.167Z,7.90
2019-06-20T08:25:15.510Z,7.62
2019-06-20T08:27:52.940Z,6.87
2019-06-20T08:30:33.475Z,6.95
2019-06-20T08:33:07.457Z,6.97
2019-06-20T08:35:34.198Z,7.12
2019-06-20T08:38:05.620Z,6.75
2019-06-20T08:40:37.709Z,7.67
2019-06-20T08:43:07.135Z,6.40
2019-06-20T08:45:37.928Z,4.92
2019-06-20T08:48:07.596Z,4.62
2019-06-20T08:50:37.094Z,5.00
2019-06-20T08:53:06.816Z,4.70
2019-06-20T08:55:36.671Z,4.55
2019-06-20T08:58:06.681Z,4.03
2019-06-20T09:00:38.029Z,3.65
2019-06-20T09:03:07.692Z,2.95
2019-06-20T09:05:37.259Z,2.72
2019-06-20T09:08:11.157Z,2.60
2019-06-20T09:10:42.220Z,2.62
2019-06-20T09:13:12.688Z,2.52
2019-06-20T09:15:44.299Z,2.58
2019-06-20T09:18:13.804Z,3.40
2019-06-20T09:20:43.150Z,3.10
2019-06-20T09:23:12.551Z,2.92
2019-06-20T09:25:42.949Z,2.80
2019-06-20T09:28:17.641Z,3.08
2019-06-20T09:30:47.017Z,3.05
2019-06-20T09:33:16.464Z,2.92
2019-06-20T09:35:45.860Z,3.20
2019-06-20T09:38:15.174Z,3.25
2019-06-20T09:40:45.478Z,2.90
2019-06-20T09:43:28.093Z,2.95
2019-06-20T09:45:58.397Z,3.00
2019-06-20T09:48:27.916Z,3.05
2019-06-20T09:50:58.542Z,3.17
2019-06-20T09:53:28.181Z,2.80
2019-06-20T09:55:57.823Z,3.50
2019-06-20T09:58:27.302Z,3.37
2019-06-20T10:00:57.450Z,3.40
2019-06-20T10:03:26.939Z,3.10
2019-06-20T10:05:56.668Z,3.52
2019-06-20T10:08:26.265Z,2.77
2019-06-20T10:10:56.262Z,3.40
2019-06-20T10:13:25.678Z,3.25
2019-06-20T10:15:55.697Z,3.12
2019-06-20T10:18:25.278Z,3.00
2019-06-20T10:20:54.670Z,2.87
2019-06-20T10:23:24.003Z,2.77
2019-06-20T10:25:53.665Z,3.33
2019-06-20T10:28:23.222Z,2.85
2019-06-20T10:30:53.408Z,3.20
2019-06-20T10:33:22.944Z,2.37
2019-06-20T10:35:52.610Z,2.40
2019-06-20T10:38:22.089Z,2.55
2019-06-20T10:40:52.063Z,2.15
2019-06-20T10:43:21.550Z,2.60
2019-06-20T10:45:50.892Z,2.42
2019-06-20T10:48:20.284Z,2.60
2019-06-20T10:50:49.853Z,2.75
2019-06-20T10:53:19.278Z,2.98
2019-06-20T10:55:49.042Z,2.10
2019-06-20T10:58:18.519Z,2.40
2019-06-20T11:00:48.357Z,2.27
2019-06-20T11:03:18.921Z,2.62
2019-06-20T11:05:48.291Z,2.60
2019-06-20T11:08:18.761Z,2.35
2019-06-20T11:10:49.258Z,2.77
2019-06-20T11:13:18.844Z,2.60
2019-06-20T11:15:48.332Z,2.85
2019-06-20T11:18:17.763Z,2.40
2019-06-20T11:20:47.123Z,2.70
2019-06-20T11:23:16.543Z,2.17
2019-06-20T11:25:46.620Z,1.85
2019-06-20T11:28:16.169Z,1.90
2019-06-20T11:30:56.097Z,1.70
2019-06-20T11:33:16.877Z,1.85
2019-06-20T11:35:46.211Z,1.40
2019-06-20T11:38:15.580Z,1.80
2019-06-20T11:40:45.003Z,1.90
2019-06-20T11:43:14.442Z,1.70
2019-06-20T11:45:43.878Z,1.77
2019-06-20T11:48:13.273Z,2.08
2019-06-20T11:50:42.664Z,2.15
2019-06-20T11:53:12.262Z,2.00
2019-06-20T11:55:42.227Z,1.80
2019-06-20T11:58:11.576Z,1.90
2019-06-20T12:00:41.008Z,2.12
2019-06-20T12:03:10.430Z,2.27
2019-06-20T12:05:41.476Z,2.35
2019-06-20T12:08:11.476Z,2.15
2019-06-20T12:10:43.090Z,2.30
2019-06-20T12:15:42.504Z,2.40
2019-06-20T12:18:12.201Z,2.08
2019-06-20T12:20:42.875Z,1.90
2019-06-20T12:23:12.441Z,2.22
2019-06-20T12:25:42.705Z,2.30
2019-06-20T12:28:13.251Z,2.40
2019-06-20T12:30:43.528Z,2.20
2019-06-20T12:33:14.087Z,2.30
2019-06-20T12:35:44.494Z,2.20
2019-06-20T12:38:15.239Z,2.40
2019-06-20T12:40:46.178Z,2.47
2019-06-20T12:43:15.688Z,2.40
2019-06-20T12:45:45.041Z,2.30
2019-06-20T12:48:14.439Z,2.67
2019-06-20T12:50:45.022Z,1.90
2019-06-20T12:53:14.606Z,2.37
2019-06-20T12:55:45.630Z,2.22
2019-06-20T12:58:15.223Z,2.52
2019-06-20T13:00:45.368Z,2.83
2019-06-20T13:03:15.822Z,2.17
2019-06-20T13:05:45.189Z,2.27
2019-06-20T13:08:14.586Z,2.20
2019-06-20T13:10:46.088Z,2.58
2019-06-20T13:15:44.575Z,2.40
2019-06-20T13:18:14.046Z,2.30
2019-06-20T13:20:44.258Z,2.37
2019-06-20T13:23:13.677Z,2.17
2019-06-20T13:25:44.486Z,2.30
2019-06-20T13:28:15.108Z,2.40
2019-06-20T13:30:48.901Z,2.35
2019-06-20T13:33:15.845Z,2.30
2019-06-20T13:35:45.424Z,2.10
2019-06-20T13:38:14.851Z,2.15
2019-06-20T13:40:45.388Z,2.80
2019-06-20T13:43:14.921Z,2.50
2019-06-20T13:45:44.797Z,2.17
2019-06-20T13:48:14.461Z,1.90
2019-06-20T13:50:45.240Z,2.08
2019-06-20T13:53:14.746Z,1.70
2019-06-20T13:55:44.209Z,1.95
2019-06-20T13:58:15.000Z,2.00
2019-06-20T14:00:45.478Z,2.00
2019-06-20T14:03:15.011Z,2.27
2019-06-20T14:05:45.377Z,2.12
2019-06-20T14:08:14.934Z,2.02
2019-06-20T14:10:46.028Z,1.80
2019-06-20T14:13:19.509Z,1.90
2019-06-20T14:15:48.542Z,1.85
2019-06-20T14:18:18.139Z,1.70
2019-06-20T14:20:48.524Z,1.50
2019-06-20T14:23:18.015Z,1.72
2019-06-20T14:25:48.674Z,1.92
2019-06-20T14:28:18.286Z,1.67
2019-06-20T14:30:48.352Z,2.02
2019-06-20T14:33:17.881Z,2.12
2019-06-20T14:35:47.898Z,2.08
2019-06-20T14:38:18.364Z,2.12
2019-06-20T14:40:48.242Z,1.98
2019-06-20T14:43:17.723Z,1.80
2019-06-20T14:45:48.604Z,2.10
2019-06-20T14:48:18.194Z,1.90
2019-06-20T14:50:47.858Z,1.95
2019-06-20T14:53:19.460Z,2.45
2019-06-20T14:55:49.737Z,2.40
2019-06-20T14:58:19.399Z,2.00
2019-06-20T15:00:50.331Z,2.30
2019-06-20T15:03:19.653Z,2.60
2019-06-20T15:05:50.146Z,2.80
2019-06-20T15:08:19.671Z,2.40
2019-06-20T15:10:50.135Z,2.90
2019-06-20T15:13:19.732Z,2.80
2019-06-20T15:15:49.520Z,2.33
2019-06-20T15:18:19.154Z,3.25
2019-06-20T15:20:50.194Z,2.83
2019-06-20T15:23:21.399Z,2.20
2019-06-20T15:25:52.011Z,2.95
2019-06-20T15:28:21.681Z,2.65
2019-06-20T15:30:52.578Z,2.80
2019-06-20T15:33:22.114Z,2.50
2019-06-20T15:35:53.428Z,2.75
2019-06-20T15:38:22.470Z,2.35
2019-06-20T15:40:53.595Z,2.15
2019-06-20T15:43:25.082Z,1.92
2019-06-20T15:45:55.840Z,2.07
2019-06-20T15:48:25.290Z,2.40
2019-06-20T15:50:54.636Z,2.20
2019-06-20T15:53:24.030Z,2.30
2019-06-20T15:55:53.469Z,1.87
2019-06-20T15:58:22.935Z,2.10
2019-06-20T16:00:52.353Z,2.30
2019-06-20T16:03:21.808Z,1.80
2019-06-20T16:05:54.726Z,1.87
2019-06-20T16:08:24.401Z,2.22
2019-06-20T16:10:53.734Z,2.00
2019-06-20T16:13:23.399Z,1.80
2019-06-20T16:15:52.788Z,2.20
2019-06-20T16:18:22.114Z,1.98
2019-06-20T16:20:51.544Z,2.22
2019-06-20T16:23:20.960Z,2.65
2019-06-20T16:25:50.347Z,1.82
2019-06-20T16:28:19.668Z,1.80
2019-06-20T16:30:49.798Z,2.10
2019-06-20T16:33:25.557Z,2.30
2019-06-20T16:35:54.571Z,2.42
2019-06-20T16:38:25.185Z,2.33
2019-06-20T16:40:54.511Z,2.30
2019-06-20T16:43:23.847Z,2.30
2019-06-20T16:45:53.178Z,2.55
2019-06-20T16:48:22.520Z,2.20
2019-06-20T16:50:51.924Z,2.20
2019-06-20T16:53:21.357Z,2.10
2019-06-20T16:55:50.788Z,2.58
2019-06-20T16:58:21.304Z,2.22
2019-06-20T17:00:50.720Z,2.58
2019-06-20T17:03:20.056Z,2.50
2019-06-20T17:05:49.392Z,2.20
2019-06-20T17:08:19.824Z,2.42
2019-06-20T17:10:49.220Z,2.37
2019-06-20T17:13:18.592Z,2.80
2019-06-20T17:15:47.956Z,2.20
2019-06-20T17:18:17.379Z,2.58
2019-06-20T17:20:46.782Z,2.40
2019-06-20T17:23:16.103Z,2.12
2019-06-20T17:25:45.463Z,2.40
2019-06-20T17:28:14.896Z,2.62
2019-06-20T17:30:44.305Z,2.92
2019-06-20T17:33:13.620Z,2.65
2019-06-20T17:35:42.948Z,2.60
2019-06-20T17:38:12.272Z,3.10
2019-06-20T17:40:41.625Z,2.87
2019-06-20T17:43:11.028Z,2.90
2019-06-20T17:45:40.363Z,3.00
2019-06-20T17:48:09.722Z,3.92
2019-06-20T17:50:39.070Z,3.17
2019-06-20T17:53:08.490Z,3.10
2019-06-20T17:55:37.847Z,3.12
2019-06-20T17:58:07.207Z,3.20
2019-06-20T18:00:36.899Z,3.47
2019-06-20T18:03:06.298Z,3.02
2019-06-20T18:05:35.631Z,3.10
2019-06-20T18:08:14.856Z,2.92
2019-06-20T18:10:36.067Z,3.00
2019-06-20T18:13:05.427Z,3.02
2019-06-20T18:15:34.863Z,3.20
2019-06-20T18:18:04.465Z,3.10
2019-06-20T18:20:33.850Z,2.95
2019-06-20T18:23:03.275Z,3.02
2019-06-20T18:25:32.696Z,3.12
2019-06-20T18:28:02.049Z,3.08
2019-06-20T18:30:43.016Z,3.02
2019-06-20T18:33:13.018Z,3.10
2019-06-20T18:35:42.463Z,2.92
2019-06-20T18:38:11.876Z,3.15
2019-06-20T18:40:41.270Z,2.87
2019-06-20T18:43:10.723Z,3.10
2019-06-20T18:45:40.100Z,3.05
2019-06-20T18:48:10.486Z,2.55
2019-06-20T18:50:39.862Z,2.95
2019-06-20T18:53:09.296Z,3.20
2019-06-20T18:55:38.716Z,2.90
2019-06-20T18:58:09.080Z,3.00
2019-06-20T19:00:38.872Z,3.37
2019-06-20T19:03:08.404Z,2.67
2019-06-20T19:05:37.825Z,3.17
2019-06-20T19:08:07.222Z,2.70
2019-06-20T19:10:36.552Z,3.00
2019-06-20T19:13:05.885Z,2.85
2019-06-20T19:15:35.320Z,2.92
2019-06-20T19:18:04.726Z,2.90
2019-06-20T19:20:34.121Z,2.92
2019-06-20T19:23:03.531Z,3.12
2019-06-20T19:25:34.594Z,3.42
2019-06-20T19:28:04.024Z,3.60
2019-06-20T19:30:45.329Z,3.40
2019-06-20T19:33:14.688Z,4.00
2019-06-20T19:35:45.060Z,3.30
2019-06-20T19:38:14.560Z,3.08
2019-06-20T19:40:48.411Z,3.47
2019-06-20T19:43:17.891Z,3.25
2019-06-20T19:45:47.252Z,3.37
2019-06-20T19:48:16.680Z,3.17
2019-06-20T19:50:46.182Z,2.85
2019-06-20T19:53:15.637Z,3.20
2019-06-20T19:55:45.133Z,3.12
2019-06-20T19:58:14.527Z,3.72
2019-06-20T20:00:44.203Z,3.60
2019-06-20T20:03:13.623Z,3.27
2019-06-20T20:05:43.716Z,3.58
2019-06-20T20:08:13.104Z,3.30
2019-06-20T20:10:49.347Z,3.08
2019-06-20T20:13:19.038Z,3.42
2019-06-20T20:15:48.468Z,3.00
2019-06-20T20:18:17.864Z,2.90
2019-06-20T20:20:48.121Z,3.12
2019-06-20T20:23:17.717Z,3.02
2019-06-20T20:25:47.127Z,3.27
2019-06-20T20:28:16.561Z,2.67
2019-06-20T20:30:46.222Z,3.10
2019-06-20T20:33:15.587Z,2.90
2019-06-20T20:35:45.966Z,3.72
2019-06-20T20:38:15.372Z,3.75
2019-06-20T20:40:44.996Z,3.33
2019-06-20T20:43:14.392Z,3.27
2019-06-20T20:45:43.865Z,3.52
2019-06-20T20:48:13.823Z,4.37
2019-06-20T20:50:43.448Z,4.00
2019-06-20T20:53:12.812Z,4.47
2019-06-20T20:55:43.352Z,3.87
2019-06-20T20:58:13.672Z,3.20
2019-06-20T21:00:55.229Z,3.52
2019-06-20T21:03:24.581Z,2.65
2019-06-20T21:05:54.981Z,3.15
2019-06-20T21:08:24.383Z,3.70
2019-06-20T21:10:53.750Z,4.40
2019-06-20T21:13:23.489Z,4.37
2019-06-20T21:15:53.003Z,4.20
2019-06-20T21:18:22.335Z,4.42
2019-06-20T21:20:51.672Z,4.40
2019-06-20T21:23:21.049Z,5.08
2019-06-20T21:25:50.489Z,6.10
2019-06-20T21:28:20.958Z,5.92
2019-06-20T21:30:50.304Z,5.12
2019-06-20T21:33:19.702Z,5.28
2019-06-20T21:35:49.050Z,5.42
2019-06-20T21:38:18.491Z,4.78
2019-06-20T21:40:47.925Z,14.25
2019-06-20T21:43:17.332Z,9.65
2019-06-20T21:45:46.692Z,7.62
2019-06-20T21:48:16.090Z,4.72
2019-06-20T21:50:45.991Z,6.05
2019-06-20T21:53:15.356Z,5.12
2019-06-20T21:55:44.784Z,4.40
2019-06-20T21:58:14.211Z,4.90
2019-06-20T22:00:47.391Z,4.83
2019-06-20T22:03:18.698Z,5.72
2019-06-20T22:05:48.233Z,6.17
2019-06-20T22:08:17.696Z,5.55
2019-06-20T22:10:47.020Z,5.70
2019-06-20T22:13:16.350Z,7.45
2019-06-20T22:15:45.817Z,5.42
2019-06-20T22:18:15.323Z,6.30
2019-06-20T22:20:44.684Z,6.75
2019-06-20T22:23:14.135Z,5.75
2019-06-20T22:25:43.724Z,5.58
2019-06-20T22:28:13.067Z,6.00
2019-06-20T22:30:48.491Z,4.67
2019-06-20T22:33:17.850Z,4.08
2019-06-20T22:35:47.353Z,4.53
2019-06-20T22:38:16.773Z,4.78
2019-06-20T22:40:47.214Z,5.50
2019-06-20T22:43:16.550Z,5.95
2019-06-20T22:45:45.919Z,5.10
2019-06-20T22:48:15.311Z,4.53
2019-06-20T22:50:44.634Z,4.30
2019-06-20T22:53:15.044Z,4.67
2019-06-20T22:55:44.635Z,4.33
2019-06-20T22:58:14.041Z,4.55
2019-06-20T23:00:44.151Z,4.40
2019-06-20T23:03:13.569Z,3.22
2019-06-20T23:05:43.007Z,3.83
2019-06-20T23:08:12.431Z,3.05
2019-06-20T23:10:41.831Z,3.37
2019-06-20T23:13:11.210Z,3.35
2019-06-20T23:15:41.325Z,2.83
2019-06-20T23:18:10.638Z,3.27
2019-06-20T23:20:40.422Z,3.75
2019-06-20T23:23:09.765Z,2.80
2019-06-20T23:25:40.815Z,3.50
2019-06-20T23:28:10.136Z,3.15
2019-06-20T23:30:39.463Z,3.20
2019-06-20T23:33:10.680Z,3.37
2019-06-20T23:35:40.087Z,3.20
2019-06-20T23:38:09.444Z,3.65
2019-06-20T23:40:38.879Z,3.58
2019-06-20T23:43:08.311Z,2.98
2019-06-20T23:45:37.643Z,2.90
2019-06-20T23:48:06.974Z,3.40
2019-06-20T23:50:36.327Z,3.80
2019-06-20T23:53:10.114Z,3.72
2019-06-20T23:55:39.503Z,3.58
2019-06-20T23:58:08.871Z,3.15
